Rock Springs, WY (82901)

11:02 AM MST on December 06, 2016 (GMT -0700)
College Hill | | Change Station

Elev 6488 ft 41.59 °N, 109.23 °W | Updated 4 minutes ago

Partly Cloudy
Partly Cloudy
8.2 °F
Feels Like 8 °F
N
0.0
Wind Variable Wind from NNE
Gusts 5.0 mph

Today
High -- | Low -- °F
--% Chance of Precip.
Yesterday
High -- | Low -- °F
Precip. -- in
Pressure 30.11 in
Visibility 10.0 miles
Clouds Few 12000 ft
Windchill 8 °F
Dew Point -4 °F
Humidity 58%
Rainfall 0.00 in
Snow Depth Not available.
7:29 AM 4:46 PM
Waxing Crescent, 43% visible
METAR KRKS 061754Z AUTO 00000KT 10SM FEW120 M14/M21 A2982 RMK AO2 SLP194 T11391211 11133 21217 58007
Pressure 30.11 in
Visibility 10.0 miles
Clouds Few 12000 ft
Windchill 8 °F
Dew Point -4 °F
Humidity 58%
Rainfall 0.00 in
Snow Depth Not available.
7:29 AM 4:46 PM
Waxing Crescent, 43% visible
METAR KRKS 061754Z AUTO 00000KT 10SM FEW120 M14/M21 A2982 RMK AO2 SLP194 T11391211 11133 21217 58007

10-Day Weather Forecast

Almanac

Astronomy

Dec. 06, 2016 Rise Set
Actual Time
Civil Twilight
Nautical Twilight
Astronomical Twilight
Moon
Length of Visible Light
Length of Day
Tomorrow will be .
, % of the Moon is Illuminated

Today's Extremes

State Highs State Lows

Community

WunderPhotos

Upload Photos

1,955,989 photos uploaded!

WunderBlog® & News

Nearby

Air Quality

  Air Quality AQ Index Pollutant
Not available.

Snow Depth

Station Depth Elevation

Earthquake Activity

City Distance Mag. Time & Date
Minimum magnitude displayed is 2.5.

Coastal Water Temperatures

Place Temperature

Stations

Nearby Weather Stations

Station Location Temp. Windchill Dew Point Humidity Wind Precip. Elev Updated Type
                   

Watches & Warnings

There are currently no watches in effect.